createdAt,value
2022-12-11T07:26:16.461Z,0
2022-12-11T07:26:19.941Z,1476
2022-12-11T07:27:46.787Z,1479
2022-12-11T07:28:39.401Z,1480
2022-12-11T07:29:52.838Z,1490
2022-12-11T07:31:05.318Z,1506
2022-12-11T07:32:09.492Z,1519
2022-12-11T07:33:22.041Z,1534
2022-12-11T07:34:35.865Z,1542
2022-12-11T07:35:38.527Z,1554
2022-12-11T07:36:51.841Z,1564
2022-12-11T07:38:04.247Z,1580
2022-12-11T07:39:17.352Z,1591
2022-12-11T07:40:19.839Z,1600
2022-12-11T07:41:33.484Z,1613
2022-12-11T07:42:46.386Z,1622
2022-12-11T07:43:50.323Z,1637
2022-12-11T07:45:02.773Z,1650
2022-12-11T07:46:16.352Z,1667
2022-12-11T07:47:18.945Z,1685
2022-12-11T07:48:32.342Z,1699
2022-12-11T07:49:44.766Z,1704
2022-12-11T07:50:57.843Z,1707
2022-12-11T07:52:00.662Z,1718
2022-12-11T07:53:13.825Z,1727
2022-12-11T07:54:26.286Z,1723
2022-12-11T07:55:29.838Z,1720
2022-12-11T07:56:43.895Z,1715
2022-12-11T07:57:57.367Z,1707
2022-12-11T07:58:59.891Z,1702
2022-12-11T08:00:13.341Z,1697
2022-12-11T08:01:25.827Z,1697
2022-12-11T08:02:35.440Z,1690
2022-12-11T08:03:39.698Z,1691
2022-12-11T08:04:52.866Z,1687
2022-12-11T08:06:05.393Z,1683
2022-12-11T08:07:08.821Z,1680
2022-12-11T08:08:21.366Z,1681
2022-12-11T08:09:34.815Z,1682
2022-12-11T08:10:47.380Z,1681
2022-12-11T08:11:50.848Z,1678
2022-12-11T08:13:03.459Z,1674
2022-12-11T08:14:19.333Z,1674
2022-12-11T08:15:22.004Z,1673
2022-12-11T08:16:35.349Z,1672
2022-12-11T08:17:48.054Z,1670
2022-12-11T08:18:51.812Z,1668
2022-12-11T08:20:14.560Z,1671
2022-12-11T08:21:18.361Z,1668
2022-12-11T08:22:21.071Z,1670
2022-12-11T08:23:34.340Z,1670
2022-12-11T08:24:47.064Z,1666
2022-12-11T08:25:50.844Z,1663
2022-12-11T08:27:03.549Z,1663
2022-12-11T08:28:17.328Z,1662
2022-12-11T08:29:20.067Z,1663
2022-12-11T08:30:33.981Z,1658
2022-12-11T08:31:46.757Z,1658
2022-12-11T08:32:50.483Z,1657
2022-12-11T08:34:03.208Z,1653
2022-12-11T08:35:16.852Z,1653
2022-12-11T08:36:29.622Z,1651
2022-12-11T08:37:33.539Z,1650
2022-12-11T08:38:46.556Z,1649
2022-12-11T08:40:00.321Z,1648
2022-12-11T08:41:03.145Z,1646
2022-12-11T08:42:26.862Z,1646
2022-12-11T08:43:29.668Z,1643
2022-12-11T08:44:33.364Z,1642
2022-12-11T08:46:06.287Z,1640
2022-12-11T08:47:30.385Z,1639
2022-12-11T08:48:03.304Z,1638
2022-12-11T08:49:16.024Z,1634
2022-12-11T08:50:29.410Z,1631
2022-12-11T08:51:32.286Z,1630
2022-12-11T08:52:45.841Z,1630
2022-12-11T08:53:58.818Z,1627
2022-12-11T08:55:12.690Z,1624
2022-12-11T08:56:15.776Z,1623
2022-12-11T08:57:39.386Z,1620
2022-12-11T08:58:42.780Z,1617
2022-12-11T08:59:46.667Z,1611
2022-12-11T09:00:59.620Z,1609
2022-12-11T09:02:13.481Z,1607
2022-12-11T09:03:16.402Z,1608
2022-12-11T09:04:29.917Z,1605
2022-12-11T09:05:42.827Z,1602
2022-12-11T09:06:46.360Z,1601
2022-12-11T09:07:59.167Z,1598
2022-12-11T09:09:12.885Z,1598
2022-12-11T09:10:15.819Z,1595
2022-12-11T09:11:29.874Z,1588
2022-12-11T09:12:42.669Z,1587
2022-12-11T09:13:46.454Z,1590
2022-12-11T09:14:59.268Z,1591
2022-12-11T09:16:12.941Z,1591
2022-12-11T09:17:16.000Z,1590
2022-12-11T09:18:29.378Z,1587
2022-12-11T09:19:42.151Z,1580
2022-12-11T09:20:56.027Z,1578
2022-12-11T09:21:58.907Z,1573
2022-12-11T09:23:12.389Z,1571
2022-12-11T09:24:25.165Z,1566
2022-12-11T09:25:28.933Z,1566
2022-12-11T09:26:41.847Z,1564
2022-12-11T09:27:55.375Z,1561
2022-12-11T09:28:58.358Z,1562
2022-12-11T09:30:11.902Z,1563
2022-12-11T09:31:24.784Z,1560
2022-12-11T09:32:28.868Z,1560
2022-12-11T09:33:41.681Z,1559
2022-12-11T09:34:55.360Z,1559
2022-12-11T09:35:58.338Z,1559
2022-12-11T09:37:12.394Z,1557
2022-12-11T09:38:25.225Z,1558
2022-12-11T09:39:28.908Z,1570
2022-12-11T09:40:41.732Z,1574
2022-12-11T09:42:05.386Z,1578
2022-12-11T09:42:58.327Z,1579
2022-12-11T09:44:11.869Z,1580
2022-12-11T09:45:24.674Z,1583
2022-12-11T09:46:38.424Z,1582
2022-12-11T09:47:41.378Z,1585
2022-12-11T09:48:57.361Z,1587
2022-12-11T09:50:00.201Z,1587
2022-12-11T09:51:13.905Z,1586
2022-12-11T09:52:36.685Z,1586
2022-12-11T09:53:34.143Z,1586
2022-12-11T09:54:47.295Z,1588
2022-12-11T09:55:50.855Z,1583
2022-12-11T09:57:03.754Z,1583
2022-12-11T09:58:17.397Z,1582
2022-12-11T09:59:20.459Z,1586
2022-12-11T10:00:33.884Z,1585
2022-12-11T10:01:46.765Z,1582
2022-12-11T10:03:00.424Z,1578
2022-12-11T10:04:03.286Z,1575
2022-12-11T10:05:19.407Z,1577
2022-12-11T10:06:22.852Z,1577
2022-12-11T10:07:36.386Z,1578
2022-12-11T10:08:49.186Z,1581
2022-12-11T10:09:52.912Z,1577
2022-12-11T10:11:05.784Z,1578
2022-12-11T10:12:19.386Z,1577
2022-12-11T10:13:22.294Z,1577
2022-12-11T10:14:35.944Z,1578
2022-12-11T10:15:48.988Z,1578
2022-12-11T10:16:52.917Z,1578
2022-12-11T10:18:05.733Z,1579
2022-12-11T10:19:19.920Z,1576
2022-12-11T10:20:22.845Z,1576
2022-12-11T10:21:36.406Z,1578
2022-12-11T10:22:49.184Z,1581
2022-12-11T10:24:02.903Z,1583
2022-12-11T10:25:12.540Z,1584
2022-12-11T10:26:16.400Z,1583
2022-12-11T10:27:29.033Z,1582
2022-12-11T10:28:42.930Z,1583
2022-12-11T10:29:45.750Z,1583
2022-12-11T10:30:59.423Z,1581
2022-12-11T10:32:12.119Z,1578
2022-12-11T10:33:15.405Z,1580
2022-12-11T10:34:27.971Z,1581
2022-12-11T10:35:41.376Z,1584
2022-12-11T10:36:58.781Z,1584
2022-12-11T10:38:03.884Z,1584
2022-12-11T10:39:06.489Z,1587
2022-12-11T10:40:19.916Z,1590
2022-12-11T10:41:32.457Z,1591
2022-12-11T10:42:38.904Z,1591
2022-12-11T10:57:02.559Z,1590
2022-12-11T10:59:05.600Z,1595
2022-12-11T11:01:55.535Z,1602
2022-12-11T11:02:48.214Z,1602
2022-12-11T11:04:50.922Z,1599
2022-12-11T11:04:54.007Z,1601
2022-12-11T11:06:06.308Z,1602
2022-12-11T11:07:10.397Z,1603
2022-12-11T11:08:22.912Z,1606
2022-12-11T11:09:36.411Z,1604
2022-12-11T11:10:39.070Z,1605
2022-12-11T11:11:54.070Z,1605
2022-12-11T11:13:06.620Z,1604
2022-12-11T11:16:59.694Z,1604
2022-12-11T11:17:03.554Z,1604
2022-12-11T11:18:36.292Z,1607
2022-12-11T11:19:26.533Z,1606
2022-12-11T11:24:00.461Z,1607
2022-12-11T11:28:41.907Z,1618
2022-12-11T11:28:45.033Z,1628
2022-12-11T11:29:17.795Z,1616
2022-12-11T11:30:30.024Z,1622
2022-12-11T11:31:42.934Z,1629
2022-12-11T11:32:45.532Z,1622
2022-12-11T11:33:58.400Z,1608
2022-12-11T11:35:10.941Z,1569
2022-12-11T11:36:24.387Z,1493
2022-12-11T11:37:26.855Z,1246
2022-12-11T11:38:40.411Z,865
2022-12-11T11:39:52.817Z,869
2022-12-11T11:41:02.461Z,812
2022-12-11T11:42:07.607Z,766
2022-12-11T11:43:20.897Z,747
2022-12-11T11:44:33.495Z,729
2022-12-11T11:45:36.939Z,725
2022-12-11T11:46:49.530Z,712
2022-12-11T11:48:07.742Z,715
2022-12-11T11:49:13.796Z,718
2022-12-11T12:14:56.190Z,746
2022-12-11T12:14:59.566Z,787
2022-12-11T12:16:43.787Z,793
2022-12-11T12:17:26.603Z,803
2022-12-11T12:37:53.268Z,820
2022-12-11T12:37:57.502Z,915
2022-12-11T12:38:20.302Z,920
2022-12-11T12:39:52.571Z,923
2022-12-11T12:40:38.164Z,922
2022-12-11T12:41:50.782Z,926
2022-12-11T12:44:04.032Z,928
2022-12-11T12:44:17.525Z,929
2022-12-11T12:45:20.067Z,928
2022-12-11T12:46:23.525Z,929
2022-12-11T12:48:15.665Z,931
2022-12-11T12:48:49.492Z,932
2022-12-11T12:49:52.002Z,934
2022-12-11T12:51:17.025Z,935
2022-12-11T12:52:20.618Z,936
2022-12-11T12:53:24.474Z,936
2022-12-11T12:54:36.896Z,936
2022-12-11T12:55:50.027Z,935
2022-12-11T12:56:52.685Z,937
2022-12-11T12:58:06.103Z,937
2022-12-11T12:59:18.640Z,936
2022-12-11T13:00:22.121Z,938
2022-12-11T13:01:35.073Z,939
2022-12-11T13:02:58.999Z,940
2022-12-11T13:03:51.750Z,944
2022-12-11T13:05:15.500Z,942
2022-12-11T13:06:18.130Z,943
2022-12-11T13:07:31.585Z,945
2022-12-11T13:08:34.226Z,947
2022-12-11T13:09:47.991Z,948
2022-12-11T13:11:00.653Z,952
2022-12-11T13:12:04.144Z,950
2022-12-11T13:13:16.676Z,949
2022-12-11T13:14:30.061Z,949
2022-12-11T13:15:32.785Z,951
2022-12-11T13:16:46.102Z,951
2022-12-11T13:17:58.723Z,951
2022-12-11T13:19:12.017Z,951
2022-12-11T13:20:14.687Z,952
2022-12-11T13:21:28.537Z,952
2022-12-11T13:22:41.170Z,952
2022-12-11T13:23:44.988Z,955
2022-12-11T13:24:57.709Z,956
2022-12-11T13:26:11.027Z,961
2022-12-11T13:27:13.578Z,962
2022-12-11T13:28:27.012Z,963
2022-12-11T13:29:39.506Z,959
2022-12-11T13:30:57.145Z,964
2022-12-11T13:32:00.046Z,962
2022-12-11T13:33:03.501Z,966
2022-12-11T13:34:15.970Z,970
2022-12-11T13:35:29.517Z,973
2022-12-11T13:36:43.129Z,976
2022-12-11T13:37:47.030Z,978
2022-12-11T13:38:59.528Z,984
2022-12-11T13:40:23.040Z,990
2022-12-11T13:41:26.163Z,1006
2022-12-11T13:42:29.530Z,1027
2022-12-11T13:43:42.033Z,1042
2022-12-11T13:44:45.542Z,1046
2022-12-11T13:45:58.118Z,1043
2022-12-11T13:47:11.693Z,1039
2022-12-11T13:48:16.934Z,1047
2022-12-11T13:49:30.521Z,1047
2022-12-11T13:50:43.026Z,1051
2022-12-11T13:51:46.516Z,1051
2022-12-11T13:52:59.013Z,1054
2022-12-11T13:54:16.520Z,1058
2022-12-11T13:55:19.754Z,1058
2022-12-11T13:56:33.013Z,1059
2022-12-11T13:57:35.598Z,1059
2022-12-11T13:58:49.025Z,1057
2022-12-11T14:00:01.552Z,1058
2022-12-11T14:01:15.142Z,1060
2022-12-11T14:02:17.972Z,1059
2022-12-11T14:03:31.530Z,1061
2022-12-11T14:04:43.971Z,1061
2022-12-11T14:05:47.530Z,1060
2022-12-11T14:06:59.920Z,1056
2022-12-11T14:08:13.081Z,1057
2022-12-11T14:09:15.862Z,1058
2022-12-11T14:10:29.022Z,1058
2022-12-11T14:11:41.527Z,1059
2022-12-11T14:12:55.068Z,1062
2022-12-11T14:13:57.701Z,1065
2022-12-11T14:15:11.208Z,1065
2022-12-11T14:16:23.965Z,1071
2022-12-11T14:17:27.520Z,1074
2022-12-11T14:18:40.079Z,1078
2022-12-11T14:19:53.521Z,1081
2022-12-11T14:21:07.097Z,1085
2022-12-11T14:22:10.505Z,1088
2022-12-11T14:23:22.990Z,1095
2022-12-11T14:24:36.497Z,1105
2022-12-11T14:25:39.144Z,1126
2022-12-11T14:26:52.559Z,1145
2022-12-11T14:28:05.063Z,1142
2022-12-11T14:29:08.557Z,1154
2022-12-11T14:30:21.052Z,1159
2022-12-11T14:31:34.549Z,1168
2022-12-11T14:32:37.373Z,1177
2022-12-11T14:33:50.552Z,1180
2022-12-11T14:35:03.007Z,1181
2022-12-11T14:36:17.002Z,1183
2022-12-11T14:37:19.689Z,1187
2022-12-11T14:38:33.026Z,1188
2022-12-11T14:40:55.218Z,1193
2022-12-11T14:40:58.531Z,1199
2022-12-11T14:42:01.094Z,1205
2022-12-11T14:43:14.570Z,1208
2022-12-11T14:44:27.003Z,1210
2022-12-11T14:45:31.171Z,1213
2022-12-11T14:46:43.716Z,1214
2022-12-11T14:47:57.061Z,1217
2022-12-11T14:49:01.292Z,1221
2022-12-11T14:50:15.048Z,1221
2022-12-11T14:51:28.487Z,1222
2022-12-11T14:52:32.069Z,1222
2022-12-11T14:53:44.476Z,1223
2022-12-11T14:55:07.598Z,1224
2022-12-11T14:56:10.192Z,1223
2022-12-11T14:57:14.020Z,1224
2022-12-11T14:58:26.597Z,1222
2022-12-11T14:59:40.057Z,1220
2022-12-11T15:00:43.745Z,1219
2022-12-11T15:02:07.132Z,1216
2022-12-11T15:03:09.845Z,1214
2022-12-11T15:04:13.548Z,1211
2022-12-11T15:05:26.214Z,1213
2022-12-11T15:06:39.653Z,1212
2022-12-11T15:07:42.396Z,1210
2022-12-11T15:08:56.535Z,1209
2022-12-11T15:10:09.502Z,1208
2022-12-11T15:11:13.541Z,1206
2022-12-11T15:12:26.371Z,1206
2022-12-11T15:13:40.073Z,1205
2022-12-11T15:14:52.888Z,1202
2022-12-11T15:15:56.519Z,1196
2022-12-11T15:17:09.932Z,1194
2022-12-11T15:18:24.092Z,1194
2022-12-11T15:19:27.225Z,1192
2022-12-11T15:20:41.031Z,1190
2022-12-11T15:21:53.992Z,1188
2022-12-11T15:22:57.558Z,1187
2022-12-11T15:24:10.474Z,1186
2022-12-11T15:25:24.032Z,1188
2022-12-11T15:26:26.856Z,1188
2022-12-11T15:27:40.900Z,1188
2022-12-11T15:28:53.805Z,1183
2022-12-11T15:29:57.527Z,1180
2022-12-11T15:31:10.467Z,1177
2022-12-11T15:32:24.575Z,1177
2022-12-11T15:33:32.571Z,1177
2022-12-11T15:34:38.045Z,1177
2022-12-11T15:35:50.883Z,1175
2022-12-11T15:37:14.547Z,1170
2022-12-11T15:38:17.337Z,1170
2022-12-11T15:39:21.116Z,1165
2022-12-11T15:40:33.917Z,1165
2022-12-11T15:41:47.535Z,1163
2022-12-11T15:42:50.518Z,1160
2022-12-11T15:44:04.081Z,1159
2022-12-11T15:45:16.861Z,1159
2022-12-11T15:46:20.666Z,1158
2022-12-11T15:47:33.574Z,1156
2022-12-11T15:48:47.593Z,1156
2022-12-11T15:49:50.460Z,1154
2022-12-11T15:51:04.154Z,1152
2022-12-11T15:52:16.931Z,1153
2022-12-11T15:53:30.554Z,1151
2022-12-11T15:54:43.333Z,1150
2022-12-11T15:55:47.089Z,1147
2022-12-11T15:56:59.873Z,1147
2022-12-11T15:58:03.743Z,1146
2022-12-11T15:59:16.495Z,1145
2022-12-11T16:00:40.022Z,1146
2022-12-11T16:01:43.044Z,1142
2022-12-11T16:02:46.638Z,1140
2022-12-11T16:04:03.319Z,1138
2022-12-11T16:05:08.667Z,1136
2022-12-11T16:06:21.521Z,1134
2022-12-11T16:07:35.121Z,1133
2022-12-11T16:08:37.977Z,1133
2022-12-11T16:09:51.545Z,1130
2022-12-11T16:11:04.328Z,1130
2022-12-11T16:12:08.037Z,1130
2022-12-11T16:13:21.423Z,1130
2022-12-11T16:14:35.064Z,1129
2022-12-11T16:15:37.927Z,1127
2022-12-11T16:16:52.080Z,1127
2022-12-11T16:18:15.031Z,1126
2022-12-11T16:19:09.068Z,1123
2022-12-11T16:20:21.833Z,1125
2022-12-11T16:21:35.550Z,1124
2022-12-11T16:22:38.337Z,1125
2022-12-11T16:23:52.064Z,1126
2022-12-11T16:25:04.947Z,1128
2022-12-11T16:26:18.590Z,1127
2022-12-11T16:27:23.251Z,1128
2022-12-11T16:28:38.042Z,1130
2022-12-11T16:29:40.824Z,1130
2022-12-11T16:30:54.574Z,1130
2022-12-11T16:32:07.950Z,1128
2022-12-11T16:33:13.106Z,1129
2022-12-11T16:34:26.456Z,1127
2022-12-11T16:36:00.333Z,1126
2022-12-11T16:36:43.198Z,1124
2022-12-11T16:37:55.958Z,1124
2022-12-11T16:39:10.179Z,1126
2022-12-11T16:40:22.951Z,1127
2022-12-11T16:41:26.549Z,1128
2022-12-11T16:42:39.286Z,1129
2022-12-11T16:43:53.078Z,1131
2022-12-11T16:45:05.891Z,1131
2022-12-11T16:46:09.609Z,1134
2022-12-11T16:47:22.552Z,1136
2022-12-11T16:48:26.733Z,1137
2022-12-11T16:49:39.501Z,1139
2022-12-11T16:51:13.606Z,1142
2022-12-11T16:51:56.718Z,1144
2022-12-11T16:53:09.525Z,1146
2022-12-11T16:54:25.572Z,1149
2022-12-11T16:55:28.388Z,1149
2022-12-11T16:56:42.054Z,1150
2022-12-11T16:57:54.814Z,1152
2022-12-11T16:58:58.581Z,1159
2022-12-11T17:00:11.336Z,1167
2022-12-11T17:01:25.122Z,1183
2022-12-11T17:02:27.914Z,1200
2022-12-11T17:03:41.561Z,1233
2022-12-11T17:04:55.298Z,1268
2022-12-11T17:06:09.035Z,1275
2022-12-11T17:07:11.669Z,1281
2022-12-11T17:08:25.276Z,1290
2022-12-11T17:09:27.991Z,1308
2022-12-11T17:10:41.600Z,1309
2022-12-11T17:11:54.119Z,1317
2022-12-11T17:13:07.623Z,1325
2022-12-11T17:14:10.293Z,1333
2022-12-11T17:15:23.596Z,1339
2022-12-11T17:16:46.058Z,1345
2022-12-11T17:17:59.588Z,1352
2022-12-11T17:18:52.229Z,1356
2022-12-11T17:20:05.554Z,1361
2022-12-11T17:21:18.022Z,1365
2022-12-11T17:22:21.602Z,1368
2022-12-11T17:23:34.095Z,1373
2022-12-11T17:24:47.559Z,1377
2022-12-11T17:25:50.093Z,1380
2022-12-11T17:27:03.552Z,1379
2022-12-11T17:28:16.017Z,1384
2022-12-11T17:29:49.623Z,1392
2022-12-11T17:30:32.409Z,1399
2022-12-11T17:31:44.830Z,1401
2022-12-11T17:32:58.124Z,1404
2022-12-11T17:34:00.750Z,1412
2022-12-11T17:35:14.395Z,1418
2022-12-11T17:36:27.048Z,1423
2022-12-11T17:37:41.592Z,1429
2022-12-11T17:38:44.133Z,1430
2022-12-11T17:39:57.769Z,1437
2022-12-11T17:41:00.286Z,1442
2022-12-11T17:42:14.319Z,1447
2022-12-11T17:43:26.788Z,1452
2022-12-11T17:44:40.054Z,1457
2022-12-11T17:47:11.328Z,1463
2022-12-11T17:48:04.065Z,1466
2022-12-11T17:49:17.443Z,1470
2022-12-11T17:50:19.954Z,1474
2022-12-11T17:51:33.476Z,1481
2022-12-11T17:52:46.080Z,1486
2022-12-11T17:53:59.464Z,1494
2022-12-11T17:55:02.374Z,1501
2022-12-11T17:56:15.515Z,1509
2022-12-11T17:57:27.890Z,1513
2022-12-11T17:58:31.440Z,1514
2022-12-11T17:59:43.818Z,1517
2022-12-11T18:00:57.515Z,1519
2022-12-11T18:02:00.167Z,1526
2022-12-11T18:03:13.571Z,1528
2022-12-11T18:04:26.143Z,1527
2022-12-11T18:05:39.462Z,1526
2022-12-11T18:06:41.953Z,1529
2022-12-11T18:07:57.905Z,1531
2022-12-11T18:09:00.929Z,1535
2022-12-11T18:10:14.507Z,1537
2022-12-11T18:11:26.801Z,1541
2022-12-11T18:12:39.965Z,1541
2022-12-11T18:13:42.533Z,1544
2022-12-11T18:14:55.975Z,1548
2022-12-11T18:16:08.726Z,1552
2022-12-11T18:17:11.932Z,1553
2022-12-11T18:18:24.281Z,1557
2022-12-11T18:19:41.475Z,1557
2022-12-11T18:20:48.367Z,1560
2022-12-11T18:21:52.021Z,1562
2022-12-11T18:23:04.403Z,1559
2022-12-11T18:24:17.522Z,1563
2022-12-11T18:25:20.024Z,1570
2022-12-11T18:26:33.459Z,1573
2022-12-11T18:27:55.812Z,1574
2022-12-11T18:28:59.447Z,1578
2022-12-11T18:30:01.926Z,1580
2022-12-11T18:31:15.728Z,1584
2022-12-11T18:32:28.300Z,1589
2022-12-11T18:33:31.498Z,1590
2022-12-11T18:34:43.897Z,1592
2022-12-11T18:35:57.460Z,1596
2022-12-11T18:37:10.227Z,1596
2022-12-11T18:38:13.489Z,1596
2022-12-11T18:39:25.916Z,1599
2022-12-11T18:40:38.981Z,1600
2022-12-11T18:41:41.587Z,1600
2022-12-11T18:42:55.212Z,1605
2022-12-11T18:44:09.985Z,1610
2022-12-11T18:45:14.283Z,1613
2022-12-11T18:46:26.903Z,1617
2022-12-11T18:47:40.021Z,1618
2022-12-11T18:48:42.490Z,1620
2022-12-11T18:49:55.579Z,1618
2022-12-11T18:51:07.896Z,1618
2022-12-11T18:52:10.959Z,1617
2022-12-11T18:53:23.370Z,1618
2022-12-11T18:54:36.484Z,1619
2022-12-11T18:55:48.889Z,1617
2022-12-11T18:56:52.468Z,1618
2022-12-11T18:58:04.911Z,1622
2022-12-11T18:59:18.478Z,1623
2022-12-11T19:00:21.040Z,1625
2022-12-11T19:01:35.016Z,1631
2022-12-11T19:02:47.389Z,1631
2022-12-11T19:03:50.468Z,1631
2022-12-11T19:05:02.835Z,1630
2022-12-11T19:06:15.987Z,1631
2022-12-11T19:07:28.356Z,1632
2022-12-11T19:08:31.494Z,1628
2022-12-11T19:09:48.026Z,1626
2022-12-11T19:10:51.982Z,1629
2022-12-11T19:12:04.331Z,1624
2022-12-11T19:13:17.474Z,1625
2022-12-11T19:14:20.005Z,1627
2022-12-11T19:15:33.474Z,1628
2022-12-11T19:16:45.823Z,1626
2022-12-11T19:17:59.509Z,1622
2022-12-11T19:19:01.977Z,1625
2022-12-11T19:20:40.168Z,1624
2022-12-11T19:21:20.599Z,1626
2022-12-11T19:22:32.960Z,1625
2022-12-11T19:23:45.991Z,1630
2022-12-11T19:24:58.157Z,1632
2022-12-11T19:26:21.485Z,1634
2022-12-11T19:27:14.279Z,1635
2022-12-11T19:28:27.478Z,1635
2022-12-11T19:29:29.941Z,1634
2022-12-11T19:30:42.992Z,1632
2022-12-11T19:31:55.381Z,1630
2022-12-11T19:33:08.504Z,1627
2022-12-11T19:34:10.946Z,1625
2022-12-11T19:35:24.003Z,1624
2022-12-11T19:36:36.367Z,1623
2022-12-11T19:37:49.488Z,1620
2022-12-11T19:38:52.024Z,1621
2022-12-11T19:40:06.508Z,1623
2022-12-11T19:41:18.954Z,1623
2022-12-11T19:42:22.477Z,1624
2022-12-11T19:43:34.938Z,1620
2022-12-11T19:44:48.502Z,1617
2022-12-11T19:45:51.062Z,1613
2022-12-11T19:47:04.519Z,1613
2022-12-11T19:48:17.240Z,1609
2022-12-11T19:49:20.495Z,1603
2022-12-11T19:50:33.075Z,1601
2022-12-11T19:51:46.467Z,1598
2022-12-11T19:52:59.078Z,1598
2022-12-11T19:54:02.490Z,1594
2022-12-11T19:55:15.236Z,1591
2022-12-11T19:56:29.083Z,1588
2022-12-11T19:57:31.751Z,1584
2022-12-11T19:58:45.503Z,1581
2022-12-11T19:59:58.298Z,1578
2022-12-11T20:01:02.543Z,1572
2022-12-11T20:02:16.683Z,1564
2022-12-11T20:03:20.478Z,1550
2022-12-11T20:04:33.147Z,1539
2022-12-11T20:05:46.489Z,1539
2022-12-11T20:06:49.333Z,1538
2022-12-11T20:08:35.250Z,1539
2022-12-11T20:09:16.324Z,1534
2022-12-11T20:10:19.193Z,1527
2022-12-11T20:11:32.989Z,1522
2022-12-11T20:12:45.756Z,1520
2022-12-11T20:13:59.476Z,1517
2022-12-11T20:15:02.244Z,1513
2022-12-11T20:16:16.050Z,1511
2022-12-11T20:17:28.976Z,1509
2022-12-11T20:18:32.518Z,1510
2022-12-11T20:19:45.336Z,1507
2022-12-11T20:20:59.059Z,1508
2022-12-11T20:22:01.856Z,1507
2022-12-11T20:23:15.575Z,1506
2022-12-11T20:24:28.306Z,1503
2022-12-11T20:25:31.976Z,1498
2022-12-11T20:26:44.759Z,1498
2022-12-11T20:27:58.520Z,1495
2022-12-11T20:29:01.569Z,1492
2022-12-11T20:30:17.222Z,1489
2022-12-11T20:31:30.054Z,1489
2022-12-11T20:32:33.966Z,1484
2022-12-11T20:33:56.688Z,1485
2022-12-11T20:35:01.090Z,1481
2022-12-11T20:36:03.937Z,1478
2022-12-11T20:37:18.020Z,1477
2022-12-11T20:38:34.422Z,1478
2022-12-11T20:39:38.488Z,1479
2022-12-11T20:40:51.506Z,1480
2022-12-11T20:41:55.466Z,1479
2022-12-11T20:43:48.348Z,1475
2022-12-11T20:44:22.057Z,1472
2022-12-11T20:45:25.027Z,1472
2022-12-11T20:46:39.020Z,1471
2022-12-11T20:47:51.864Z,1471
2022-12-11T20:48:55.570Z,1469
2022-12-11T20:50:08.318Z,1468
2022-12-11T20:51:25.677Z,1466
2022-12-11T20:52:28.997Z,1464
2022-12-11T20:53:42.552Z,1461
2022-12-11T20:54:45.455Z,1458
2022-12-11T20:56:01.239Z,1455
2022-12-11T20:57:34.209Z,1452
2022-12-11T20:58:27.995Z,1449
2022-12-11T20:59:30.852Z,1448
2022-12-11T21:00:44.624Z,1445
2022-12-11T21:01:47.691Z,1444
2022-12-11T21:03:02.020Z,1444
2022-12-11T21:04:15.377Z,1442
2022-12-11T21:05:20.048Z,1439
2022-12-11T21:06:32.850Z,1434
2022-12-11T21:07:46.581Z,1432
2022-12-11T21:08:50.360Z,1432
2022-12-11T21:10:04.337Z,1430
2022-12-11T21:11:07.179Z,1429
2022-12-11T21:12:24.568Z,1423
2022-12-11T21:13:31.202Z,1424
2022-12-11T21:14:46.499Z,1422
2022-12-11T21:15:49.493Z,1419
2022-12-11T21:17:03.024Z,1412
2022-12-11T21:18:15.922Z,1409
2022-12-11T21:19:30.065Z,1408
2022-12-11T21:20:32.885Z,1411
2022-12-11T21:21:46.519Z,1407
2022-12-11T21:22:49.335Z,1404
2022-12-11T21:24:03.020Z,1401
2022-12-11T21:25:16.486Z,1397
2022-12-11T21:26:20.101Z,1393
2022-12-11T21:27:32.983Z,1390
2022-12-11T21:28:56.523Z,1389
2022-12-11T21:29:49.396Z,1386
2022-12-11T21:31:03.490Z,1381
2022-12-11T21:32:16.301Z,1377
2022-12-11T21:33:20.064Z,1374
2022-12-11T21:34:32.892Z,1373
2022-12-11T21:35:46.559Z,1370
2022-12-11T21:36:49.852Z,1367
2022-12-11T21:38:03.555Z,1368
2022-12-11T21:39:16.307Z,1370
2022-12-11T21:40:30.011Z,1367
2022-12-11T21:41:32.865Z,1365
2022-12-11T21:42:57.076Z,1364
2022-12-11T21:44:56.575Z,1364
2022-12-11T21:45:59.938Z,1361
2022-12-11T21:46:24.436Z,1363
2022-12-11T21:47:27.211Z,1364
2022-12-11T21:48:41.070Z,1363
2022-12-11T21:49:43.912Z,1363
2022-12-11T21:50:57.533Z,1362
2022-12-11T21:52:10.260Z,1360
2022-12-11T21:53:14.075Z,1360
2022-12-11T21:54:37.024Z,1359
2022-12-11T21:55:50.560Z,1358
2022-12-11T21:58:11.446Z,1351
2022-12-11T21:59:04.331Z,1348
2022-12-11T22:00:18.567Z,1344
2022-12-11T22:01:51.506Z,1344
2022-12-11T22:02:55.510Z,1342
2022-12-11T22:03:48.420Z,1341
2022-12-11T22:05:02.455Z,1340
2022-12-11T22:06:05.498Z,1338
2022-12-11T22:07:21.449Z,1340
2022-12-11T22:08:24.353Z,1341
2022-12-11T22:09:37.966Z,1342
2022-12-11T22:10:51.737Z,1339
2022-12-11T22:11:58.637Z,1336
2022-12-11T22:13:21.680Z,1338
2022-12-11T22:14:15.822Z,1336
2022-12-11T22:15:29.112Z,1334
2022-12-11T22:16:43.123Z,1332
2022-12-11T22:17:45.996Z,1331
2022-12-11T22:18:59.947Z,1328
2022-12-11T22:20:12.755Z,1328
2022-12-11T22:21:16.565Z,1325
2022-12-11T22:22:29.355Z,1329
2022-12-11T22:23:42.937Z,1336
2022-12-11T22:24:45.762Z,1350
2022-12-11T22:25:59.462Z,1376
2022-12-11T22:27:32.269Z,1432
2022-12-11T22:28:36.062Z,1458
2022-12-11T22:29:29.099Z,1486
2022-12-11T22:30:43.012Z,1501
2022-12-11T22:31:46.113Z,1517
2022-12-11T22:32:59.969Z,1530
2022-12-11T22:34:12.750Z,1538
2022-12-11T22:35:36.946Z,1537
2022-12-11T22:36:49.947Z,1540
2022-12-11T22:37:44.017Z,1539
2022-12-11T22:38:46.892Z,1542
2022-12-11T22:40:20.974Z,1546
2022-12-11T22:41:20.460Z,1548
2022-12-11T22:42:25.961Z,1555
2022-12-11T22:43:29.001Z,1554
2022-12-11T22:44:42.977Z,1554
2022-12-11T22:45:55.783Z,1552
2022-12-11T22:46:59.520Z,1551
2022-12-11T22:48:12.334Z,1553
2022-12-11T22:49:35.997Z,1554
2022-12-11T22:50:28.946Z,1555
2022-12-11T22:51:42.457Z,1557
2022-12-11T22:52:55.379Z,1556
2022-12-11T22:53:58.990Z,1555
2022-12-11T22:55:11.996Z,1555
2022-12-11T22:56:25.966Z,1555
2022-12-11T22:57:28.783Z,1555
2022-12-11T22:58:42.515Z,1554
2022-12-11T22:59:55.319Z,1554
2022-12-11T23:00:58.944Z,1558
2022-12-11T23:02:12.115Z,1557
2022-12-11T23:03:25.977Z,1554
2022-12-11T23:04:28.840Z,1556
2022-12-11T23:05:42.453Z,1558
2022-12-11T23:06:55.363Z,1557
2022-12-11T23:08:09.344Z,1556
2022-12-11T23:09:12.194Z,1558
2022-12-11T23:10:26.122Z,1556
2022-12-11T23:11:38.950Z,1553
2022-12-11T23:12:42.928Z,1549
2022-12-11T23:13:55.754Z,1551
2022-12-11T23:15:09.678Z,1555
2022-12-11T23:16:12.739Z,1553
2022-12-11T23:17:26.479Z,1553
2022-12-11T23:18:39.262Z,1553
2022-12-11T23:19:42.963Z,1554
2022-12-11T23:20:55.856Z,1552
2022-12-11T23:22:09.456Z,1550
2022-12-11T23:23:12.288Z,1548
2022-12-11T23:24:26.447Z,1546
2022-12-11T23:25:39.311Z,1546
2022-12-11T23:26:43.118Z,1547
2022-12-11T23:27:55.913Z,1550
2022-12-11T23:29:09.650Z,1550
2022-12-11T23:30:12.624Z,1549
2022-12-11T23:31:26.606Z,1550
2022-12-11T23:32:39.767Z,1548
2022-12-11T23:33:53.502Z,1546
2022-12-11T23:34:56.743Z,1543
2022-12-11T23:36:10.469Z,1540
2022-12-11T23:37:13.514Z,1537
2022-12-11T23:38:27.468Z,1539
2022-12-11T23:39:40.323Z,1537
2022-12-11T23:40:53.977Z,1535
2022-12-11T23:41:56.839Z,1534
2022-12-11T23:43:30.632Z,1535
2022-12-11T23:44:23.568Z,1533
2022-12-11T23:45:38.530Z,1530
2022-12-11T23:46:41.432Z,1527
2022-12-11T23:47:55.000Z,1532
2022-12-11T23:48:57.900Z,1530
2022-12-11T23:50:11.484Z,1529
2022-12-11T23:51:24.436Z,1533
2022-12-11T23:52:29.477Z,1530
2022-12-11T23:53:42.267Z,1526
2022-12-11T23:54:55.995Z,1528
2022-12-11T23:55:58.802Z,1527
2022-12-11T23:57:12.506Z,1525
2022-12-11T23:58:25.320Z,1523
2022-12-11T23:59:29.441Z,1523
